sensor_id;sensor_type;location;lat;lon;timestamp;temperature;humidity
65582;DHT22;52231;40.090;18.348;2023-03-12T00:01:21;10.60;86.90
65582;DHT22;52231;40.090;18.348;2023-03-12T00:03:49;10.70;86.90
65582;DHT22;52231;40.090;18.348;2023-03-12T00:06:19;10.70;86.90
65582;DHT22;52231;40.090;18.348;2023-03-12T00:08:48;10.60;86.90
65582;DHT22;52231;40.090;18.348;2023-03-12T00:11:18;10.60;86.90
65582;DHT22;52231;40.090;18.348;2023-03-12T00:13:51;10.60;86.70
65582;DHT22;52231;40.090;18.348;2023-03-12T00:16:20;10.60;86.60
65582;DHT22;52231;40.090;18.348;2023-03-12T00:18:50;10.60;86.60
65582;DHT22;52231;40.090;18.348;2023-03-12T00:21:19;10.60;86.50
65582;DHT22;52231;40.090;18.348;2023-03-12T00:23:49;10.60;86.40
65582;DHT22;52231;40.090;18.348;2023-03-12T00:26:18;10.60;86.30
65582;DHT22;52231;40.090;18.348;2023-03-12T00:28:48;10.50;86.20
65582;DHT22;52231;40.090;18.348;2023-03-12T00:31:19;10.50;86.20
65582;DHT22;52231;40.090;18.348;2023-03-12T00:33:49;10.50;86.10
65582;DHT22;52231;40.090;18.348;2023-03-12T00:36:19;10.50;86.10
65582;DHT22;52231;40.090;18.348;2023-03-12T00:38:48;10.50;86.00
65582;DHT22;52231;40.090;18.348;2023-03-12T00:41:16;10.50;86.00
65582;DHT22;52231;40.090;18.348;2023-03-12T00:43:47;10.50;85.80
65582;DHT22;52231;40.090;18.348;2023-03-12T00:46:17;10.50;85.90
65582;DHT22;52231;40.090;18.348;2023-03-12T00:48:45;10.50;85.90
65582;DHT22;52231;40.090;18.348;2023-03-12T00:51:15;10.50;86.00
65582;DHT22;52231;40.090;18.348;2023-03-12T00:53:43;10.60;86.10
65582;DHT22;52231;40.090;18.348;2023-03-12T00:56:11;10.70;86.10
65582;DHT22;52231;40.090;18.348;2023-03-12T00:58:40;10.70;86.10
65582;DHT22;52231;40.090;18.348;2023-03-12T01:01:16;10.70;85.90
65582;DHT22;52231;40.090;18.348;2023-03-12T01:03:45;10.70;85.70
65582;DHT22;52231;40.090;18.348;2023-03-12T01:06:13;10.60;85.70
65582;DHT22;52231;40.090;18.348;2023-03-12T01:08:42;10.60;85.60
65582;DHT22;52231;40.090;18.348;2023-03-12T01:11:15;10.50;85.60
65582;DHT22;52231;40.090;18.348;2023-03-12T01:13:44;10.50;85.70
65582;DHT22;52231;40.090;18.348;2023-03-12T01:16:12;10.50;85.80
65582;DHT22;52231;40.090;18.348;2023-03-12T01:18:40;10.50;86.10
65582;DHT22;52231;40.090;18.348;2023-03-12T01:21:09;10.60;86.30
65582;DHT22;52231;40.090;18.348;2023-03-12T01:23:37;10.70;86.50
65582;DHT22;52231;40.090;18.348;2023-03-12T01:26:05;10.70;86.50
65582;DHT22;52231;40.090;18.348;2023-03-12T01:28:33;10.80;86.40
65582;DHT22;52231;40.090;18.348;2023-03-12T01:31:15;10.80;86.50
65582;DHT22;52231;40.090;18.348;2023-03-12T01:33:50;10.80;86.40
65582;DHT22;52231;40.090;18.348;2023-03-12T01:36:21;10.90;86.30
65582;DHT22;52231;40.090;18.348;2023-03-12T01:38:54;10.90;86.30
65582;DHT22;52231;40.090;18.348;2023-03-12T01:41:25;10.90;86.30
65582;DHT22;52231;40.090;18.348;2023-03-12T01:43:55;10.90;86.30
65582;DHT22;52231;40.090;18.348;2023-03-12T01:51:38;10.90;86.60
65582;DHT22;52231;40.090;18.348;2023-03-12T01:54:21;10.80;86.70
65582;DHT22;52231;40.090;18.348;2023-03-12T01:56:51;10.80;86.80
65582;DHT22;52231;40.090;18.348;2023-03-12T01:59:23;10.80;86.80
65582;DHT22;52231;40.090;18.348;2023-03-12T02:01:53;10.80;86.80
65582;DHT22;52231;40.090;18.348;2023-03-12T02:04:23;10.70;86.80
65582;DHT22;52231;40.090;18.348;2023-03-12T02:09:35;10.60;87.00
65582;DHT22;52231;40.090;18.348;2023-03-12T02:12:04;10.60;87.20
65582;DHT22;52231;40.090;18.348;2023-03-12T02:14:33;10.60;87.10
65582;DHT22;52231;40.090;18.348;2023-03-12T02:17:01;10.60;87.10
65582;DHT22;52231;40.090;18.348;2023-03-12T02:19:48;10.50;87.10
65582;DHT22;52231;40.090;18.348;2023-03-12T02:22:18;10.50;87.10
65582;DHT22;52231;40.090;18.348;2023-03-12T02:27:43;10.40;87.30
65582;DHT22;52231;40.090;18.348;2023-03-12T02:30:13;10.40;87.40
65582;DHT22;52231;40.090;18.348;2023-03-12T02:32:45;10.40;87.50
65582;DHT22;52231;40.090;18.348;2023-03-12T02:35:17;10.40;87.60
65582;DHT22;52231;40.090;18.348;2023-03-12T02:37:50;10.40;87.60
65582;DHT22;52231;40.090;18.348;2023-03-12T02:40:42;10.40;87.70
65582;DHT22;52231;40.090;18.348;2023-03-12T02:43:19;10.50;87.80
65582;DHT22;52231;40.090;18.348;2023-03-12T02:45:48;10.60;87.80
65582;DHT22;52231;40.090;18.348;2023-03-12T02:48:16;10.60;87.70
65582;DHT22;52231;40.090;18.348;2023-03-12T02:50:45;10.60;87.70
65582;DHT22;52231;40.090;18.348;2023-03-12T02:53:13;10.50;87.60
65582;DHT22;52231;40.090;18.348;2023-03-12T02:55:41;10.50;87.60
65582;DHT22;52231;40.090;18.348;2023-03-12T02:58:09;10.50;87.50
65582;DHT22;52231;40.090;18.348;2023-03-12T03:00:38;10.40;87.50
65582;DHT22;52231;40.090;18.348;2023-03-12T03:03:06;10.40;87.50
65582;DHT22;52231;40.090;18.348;2023-03-12T03:09:45;10.50;87.60
65582;DHT22;52231;40.090;18.348;2023-03-12T03:12:13;10.50;87.70
65582;DHT22;52231;40.090;18.348;2023-03-12T03:14:41;10.60;87.70
65582;DHT22;52231;40.090;18.348;2023-03-12T03:17:11;10.60;87.70
65582;DHT22;52231;40.090;18.348;2023-03-12T03:19:39;10.70;87.60
65582;DHT22;52231;40.090;18.348;2023-03-12T03:22:07;10.70;87.60
65582;DHT22;52231;40.090;18.348;2023-03-12T03:24:35;10.80;87.50
65582;DHT22;52231;40.090;18.348;2023-03-12T03:27:04;10.80;87.50
65582;DHT22;52231;40.090;18.348;2023-03-12T03:29:32;10.80;87.50
65582;DHT22;52231;40.090;18.348;2023-03-12T03:32:02;10.80;87.50
65582;DHT22;52231;40.090;18.348;2023-03-12T03:34:30;10.80;87.50
65582;DHT22;52231;40.090;18.348;2023-03-12T03:36:58;10.80;87.50
65582;DHT22;52231;40.090;18.348;2023-03-12T03:39:28;10.80;87.50
65582;DHT22;52231;40.090;18.348;2023-03-12T03:41:57;10.80;87.50
65582;DHT22;52231;40.090;18.348;2023-03-12T03:44:27;10.80;87.50
65582;DHT22;52231;40.090;18.348;2023-03-12T03:46:55;10.80;87.40
65582;DHT22;52231;40.090;18.348;2023-03-12T03:49:24;10.70;87.50
65582;DHT22;52231;40.090;18.348;2023-03-12T03:51:52;10.80;87.50
65582;DHT22;52231;40.090;18.348;2023-03-12T03:54:27;10.80;87.50
65582;DHT22;52231;40.090;18.348;2023-03-12T03:56:59;10.80;87.50
65582;DHT22;52231;40.090;18.348;2023-03-12T03:59:27;10.80;87.50
65582;DHT22;52231;40.090;18.348;2023-03-12T04:01:58;10.80;87.40
65582;DHT22;52231;40.090;18.348;2023-03-12T04:04:26;10.90;87.40
65582;DHT22;52231;40.090;18.348;2023-03-12T04:06:55;11.00;87.30
65582;DHT22;52231;40.090;18.348;2023-03-12T04:09:24;10.90;87.20
65582;DHT22;52231;40.090;18.348;2023-03-12T04:11:52;11.00;87.30
65582;DHT22;52231;40.090;18.348;2023-03-12T04:14:20;11.00;87.40
65582;DHT22;52231;40.090;18.348;2023-03-12T04:16:49;11.00;87.60
65582;DHT22;52231;40.090;18.348;2023-03-12T04:19:18;11.00;87.70
65582;DHT22;52231;40.090;18.348;2023-03-12T04:21:46;10.90;87.80
65582;DHT22;52231;40.090;18.348;2023-03-12T04:24:16;10.80;87.90
65582;DHT22;52231;40.090;18.348;2023-03-12T04:26:44;10.90;88.10
65582;DHT22;52231;40.090;18.348;2023-03-12T04:29:15;10.90;88.20
65582;DHT22;52231;40.090;18.348;2023-03-12T04:31:44;10.80;88.30
65582;DHT22;52231;40.090;18.348;2023-03-12T04:34:13;10.80;88.30
65582;DHT22;52231;40.090;18.348;2023-03-12T04:36:44;10.80;88.40
65582;DHT22;52231;40.090;18.348;2023-03-12T04:39:20;10.80;88.50
65582;DHT22;52231;40.090;18.348;2023-03-12T04:41:51;10.80;88.50
65582;DHT22;52231;40.090;18.348;2023-03-12T04:44:19;10.80;88.50
65582;DHT22;52231;40.090;18.348;2023-03-12T04:46:48;10.70;88.50
65582;DHT22;52231;40.090;18.348;2023-03-12T04:49:19;10.80;88.60
65582;DHT22;52231;40.090;18.348;2023-03-12T04:51:48;10.80;88.60
65582;DHT22;52231;40.090;18.348;2023-03-12T04:54:22;10.70;88.70
65582;DHT22;52231;40.090;18.348;2023-03-12T04:56:50;10.60;88.80
65582;DHT22;52231;40.090;18.348;2023-03-12T04:59:21;10.60;88.90
65582;DHT22;52231;40.090;18.348;2023-03-12T05:01:50;10.60;88.90
65582;DHT22;52231;40.090;18.348;2023-03-12T05:04:23;10.50;89.00
65582;DHT22;52231;40.090;18.348;2023-03-12T05:06:53;10.50;89.00
65582;DHT22;52231;40.090;18.348;2023-03-12T05:09:21;10.40;89.10
65582;DHT22;52231;40.090;18.348;2023-03-12T05:11:50;10.30;89.10
65582;DHT22;52231;40.090;18.348;2023-03-12T05:14:22;10.30;89.20
65582;DHT22;52231;40.090;18.348;2023-03-12T05:16:50;10.30;89.30
65582;DHT22;52231;40.090;18.348;2023-03-12T05:19:19;10.30;89.30
65582;DHT22;52231;40.090;18.348;2023-03-12T05:21:48;10.20;89.20
65582;DHT22;52231;40.090;18.348;2023-03-12T05:24:16;10.20;89.30
65582;DHT22;52231;40.090;18.348;2023-03-12T05:26:45;10.20;89.30
65582;DHT22;52231;40.090;18.348;2023-03-12T05:29:17;10.20;89.40
65582;DHT22;52231;40.090;18.348;2023-03-12T05:31:45;10.20;89.40
65582;DHT22;52231;40.090;18.348;2023-03-12T05:34:14;10.30;89.50
65582;DHT22;52231;40.090;18.348;2023-03-12T05:36:44;10.30;89.50
65582;DHT22;52231;40.090;18.348;2023-03-12T05:39:17;10.30;89.50
65582;DHT22;52231;40.090;18.348;2023-03-12T05:41:57;10.30;89.60
65582;DHT22;52231;40.090;18.348;2023-03-12T05:44:31;10.40;89.60
65582;DHT22;52231;40.090;18.348;2023-03-12T05:47:01;10.60;89.70
65582;DHT22;52231;40.090;18.348;2023-03-12T05:49:30;10.70;89.70
65582;DHT22;52231;40.090;18.348;2023-03-12T05:51:58;10.90;89.80
65582;DHT22;52231;40.090;18.348;2023-03-12T05:54:27;11.10;89.70
65582;DHT22;52231;40.090;18.348;2023-03-12T05:56:59;11.30;89.70
65582;DHT22;52231;40.090;18.348;2023-03-12T05:59:30;11.60;89.60
65582;DHT22;52231;40.090;18.348;2023-03-12T06:01:59;11.90;89.50
65582;DHT22;52231;40.090;18.348;2023-03-12T06:04:28;12.20;89.30
65582;DHT22;52231;40.090;18.348;2023-03-12T06:06:56;12.50;88.90
65582;DHT22;52231;40.090;18.348;2023-03-12T06:09:25;12.70;88.50
65582;DHT22;52231;40.090;18.348;2023-03-12T06:11:53;13.00;88.10
65582;DHT22;52231;40.090;18.348;2023-03-12T06:14:22;13.30;87.60
65582;DHT22;52231;40.090;18.348;2023-03-12T06:16:51;13.40;86.80
65582;DHT22;52231;40.090;18.348;2023-03-12T06:19:20;13.60;86.50
65582;DHT22;52231;40.090;18.348;2023-03-12T06:21:50;14.00;85.70
65582;DHT22;52231;40.090;18.348;2023-03-12T06:24:18;14.20;84.70
65582;DHT22;52231;40.090;18.348;2023-03-12T06:26:50;14.40;83.70
65582;DHT22;52231;40.090;18.348;2023-03-12T06:29:18;14.70;83.30
65582;DHT22;52231;40.090;18.348;2023-03-12T06:31:46;14.80;82.40
65582;DHT22;52231;40.090;18.348;2023-03-12T06:34:15;15.10;82.00
65582;DHT22;52231;40.090;18.348;2023-03-12T06:36:43;15.30;81.20
65582;DHT22;52231;40.090;18.348;2023-03-12T06:39:16;15.60;79.80
65582;DHT22;52231;40.090;18.348;2023-03-12T06:41:45;15.80;79.70
65582;DHT22;52231;40.090;18.348;2023-03-12T06:44:13;16.00;79.10
65582;DHT22;52231;40.090;18.348;2023-03-12T06:46:44;16.30;78.50
65582;DHT22;52231;40.090;18.348;2023-03-12T06:49:13;16.30;77.50
65582;DHT22;52231;40.090;18.348;2023-03-12T06:51:41;16.50;77.30
65582;DHT22;52231;40.090;18.348;2023-03-12T06:54:09;16.70;76.40
65582;DHT22;52231;40.090;18.348;2023-03-12T06:56:38;16.80;75.30
65582;DHT22;52231;40.090;18.348;2023-03-12T06:59:06;16.90;75.00
65582;DHT22;52231;40.090;18.348;2023-03-12T07:01:35;16.90;74.90
65582;DHT22;52231;40.090;18.348;2023-03-12T07:04:03;16.90;74.90
65582;DHT22;52231;40.090;18.348;2023-03-12T07:06:31;17.10;75.00
65582;DHT22;52231;40.090;18.348;2023-03-12T07:09:00;17.20;74.50
65582;DHT22;52231;40.090;18.348;2023-03-12T07:11:28;17.50;73.60
65582;DHT22;52231;40.090;18.348;2023-03-12T07:13:56;17.80;73.10
65582;DHT22;52231;40.090;18.348;2023-03-12T07:16:27;17.80;72.50
65582;DHT22;52231;40.090;18.348;2023-03-12T07:18:56;18.00;72.50
65582;DHT22;52231;40.090;18.348;2023-03-12T07:21:26;18.10;71.30
65582;DHT22;52231;40.090;18.348;2023-03-12T07:23:54;18.20;71.00
65582;DHT22;52231;40.090;18.348;2023-03-12T07:26:23;18.40;70.60
65582;DHT22;52231;40.090;18.348;2023-03-12T07:28:51;18.50;70.30
65582;DHT22;52231;40.090;18.348;2023-03-12T07:31:19;18.80;70.00
65582;DHT22;52231;40.090;18.348;2023-03-12T07:33:48;18.90;69.30
65582;DHT22;52231;40.090;18.348;2023-03-12T07:36:16;18.80;69.20
65582;DHT22;52231;40.090;18.348;2023-03-12T07:38:44;18.80;69.40
65582;DHT22;52231;40.090;18.348;2023-03-12T07:41:13;18.90;69.70
65582;DHT22;52231;40.090;18.348;2023-03-12T07:43:41;19.10;68.60
65582;DHT22;52231;40.090;18.348;2023-03-12T07:46:10;19.10;68.00
65582;DHT22;52231;40.090;18.348;2023-03-12T07:48:38;19.10;67.70
65582;DHT22;52231;40.090;18.348;2023-03-12T07:51:10;19.20;68.30
65582;DHT22;52231;40.090;18.348;2023-03-12T07:53:38;19.30;67.80
65582;DHT22;52231;40.090;18.348;2023-03-12T07:56:07;19.30;67.70
65582;DHT22;52231;40.090;18.348;2023-03-12T07:58:35;19.40;68.40
65582;DHT22;52231;40.090;18.348;2023-03-12T08:01:04;19.60;68.60
65582;DHT22;52231;40.090;18.348;2023-03-12T08:03:33;19.80;67.70
65582;DHT22;52231;40.090;18.348;2023-03-12T08:06:03;20.10;67.50
65582;DHT22;52231;40.090;18.348;2023-03-12T08:08:31;20.30;66.30
65582;DHT22;52231;40.090;18.348;2023-03-12T08:11:02;20.00;65.90
65582;DHT22;52231;40.090;18.348;2023-03-12T08:13:30;20.00;66.60
65582;DHT22;52231;40.090;18.348;2023-03-12T08:15:58;20.30;66.10
65582;DHT22;52231;40.090;18.348;2023-03-12T08:18:27;20.30;64.00
65582;DHT22;52231;40.090;18.348;2023-03-12T08:20:55;20.30;63.80
65582;DHT22;52231;40.090;18.348;2023-03-12T08:23:23;20.30;63.90
65582;DHT22;52231;40.090;18.348;2023-03-12T08:25:54;20.40;64.00
65582;DHT22;52231;40.090;18.348;2023-03-12T08:28:24;20.40;64.20
65582;DHT22;52231;40.090;18.348;2023-03-12T08:30:54;20.30;64.20
65582;DHT22;52231;40.090;18.348;2023-03-12T08:33:23;20.40;64.00
65582;DHT22;52231;40.090;18.348;2023-03-12T08:35:51;20.50;63.50
65582;DHT22;52231;40.090;18.348;2023-03-12T08:38:20;20.70;62.50
65582;DHT22;52231;40.090;18.348;2023-03-12T08:40:56;20.80;62.90
65582;DHT22;52231;40.090;18.348;2023-03-12T08:43:28;20.70;61.30
65582;DHT22;52231;40.090;18.348;2023-03-12T08:45:58;20.60;62.10
65582;DHT22;52231;40.090;18.348;2023-03-12T08:48:28;20.70;61.50
65582;DHT22;52231;40.090;18.348;2023-03-12T08:50:59;21.00;60.80
65582;DHT22;52231;40.090;18.348;2023-03-12T08:53:27;20.90;59.90
65582;DHT22;52231;40.090;18.348;2023-03-12T08:55:56;21.20;59.90
65582;DHT22;52231;40.090;18.348;2023-03-12T08:58:25;21.30;58.70
65582;DHT22;52231;40.090;18.348;2023-03-12T09:00:54;21.80;57.90
65582;DHT22;52231;40.090;18.348;2023-03-12T09:03:23;21.90;58.10
65582;DHT22;52231;40.090;18.348;2023-03-12T09:06:05;21.60;58.50
65582;DHT22;52231;40.090;18.348;2023-03-12T09:08:34;21.50;59.70
65582;DHT22;52231;40.090;18.348;2023-03-12T09:11:02;21.90;58.70
65582;DHT22;52231;40.090;18.348;2023-03-12T09:13:30;21.50;58.70
65582;DHT22;52231;40.090;18.348;2023-03-12T09:16:18;21.30;60.10
65582;DHT22;52231;40.090;18.348;2023-03-12T09:18:47;21.60;60.30
65582;DHT22;52231;40.090;18.348;2023-03-12T09:21:19;21.20;60.00
65582;DHT22;52231;40.090;18.348;2023-03-12T09:23:47;21.30;60.60
65582;DHT22;52231;40.090;18.348;2023-03-12T09:26:16;21.30;59.90
65582;DHT22;52231;40.090;18.348;2023-03-12T09:28:44;20.80;61.00
65582;DHT22;52231;40.090;18.348;2023-03-12T09:31:12;20.60;62.00
65582;DHT22;52231;40.090;18.348;2023-03-12T09:33:42;20.70;62.30
65582;DHT22;52231;40.090;18.348;2023-03-12T09:36:10;20.90;61.30
65582;DHT22;52231;40.090;18.348;2023-03-12T09:38:38;21.00;59.90
65582;DHT22;52231;40.090;18.348;2023-03-12T09:41:21;21.20;60.00
65582;DHT22;52231;40.090;18.348;2023-03-12T09:44:06;21.50;58.90
65582;DHT22;52231;40.090;18.348;2023-03-12T09:46:40;21.40;58.20
65582;DHT22;52231;40.090;18.348;2023-03-12T09:49:34;21.00;59.20
65582;DHT22;52231;40.090;18.348;2023-03-12T09:52:31;20.40;60.20
65582;DHT22;52231;40.090;18.348;2023-03-12T09:55:11;20.10;61.80
65582;DHT22;52231;40.090;18.348;2023-03-12T09:57:44;19.80;62.20
65582;DHT22;52231;40.090;18.348;2023-03-12T10:00:15;19.90;62.20
65582;DHT22;52231;40.090;18.348;2023-03-12T10:03:06;20.40;61.00
65582;DHT22;52231;40.090;18.348;2023-03-12T10:06:05;20.50;60.50
65582;DHT22;52231;40.090;18.348;2023-03-12T10:17:07;19.40;62.70
65582;DHT22;52231;40.090;18.348;2023-03-12T10:27:42;19.80;61.50
65582;DHT22;52231;40.090;18.348;2023-03-12T10:30:23;19.80;61.10
65582;DHT22;52231;40.090;18.348;2023-03-12T10:33:02;20.30;59.80
65582;DHT22;52231;40.090;18.348;2023-03-12T10:35:33;20.10;58.20
65582;DHT22;52231;40.090;18.348;2023-03-12T10:38:03;19.70;59.40
65582;DHT22;52231;40.090;18.348;2023-03-12T10:40:35;19.40;60.40
65582;DHT22;52231;40.090;18.348;2023-03-12T10:43:04;19.60;61.30
65582;DHT22;52231;40.090;18.348;2023-03-12T10:48:23;19.50;60.20
65582;DHT22;52231;40.090;18.348;2023-03-12T10:53:32;19.50;61.10
65582;DHT22;52231;40.090;18.348;2023-03-12T10:56:03;19.80;59.80
65582;DHT22;52231;40.090;18.348;2023-03-12T10:58:38;19.70;59.00
65582;DHT22;52231;40.090;18.348;2023-03-12T11:01:21;19.80;59.70
65582;DHT22;52231;40.090;18.348;2023-03-12T11:03:51;19.70;58.90
65582;DHT22;52231;40.090;18.348;2023-03-12T11:06:23;19.70;59.50
65582;DHT22;52231;40.090;18.348;2023-03-12T11:11:49;19.40;58.00
65582;DHT22;52231;40.090;18.348;2023-03-12T11:14:18;19.30;57.30
65582;DHT22;52231;40.090;18.348;2023-03-12T11:16:54;19.30;57.20
65582;DHT22;52231;40.090;18.348;2023-03-12T11:19:29;19.40;57.00
65582;DHT22;52231;40.090;18.348;2023-03-12T11:22:05;19.40;57.00
65582;DHT22;52231;40.090;18.348;2023-03-12T11:24:35;19.30;57.00
65582;DHT22;52231;40.090;18.348;2023-03-12T11:27:09;19.30;56.10
65582;DHT22;52231;40.090;18.348;2023-03-12T11:29:48;19.30;55.80
65582;DHT22;52231;40.090;18.348;2023-03-12T11:32:33;19.30;55.50
65582;DHT22;52231;40.090;18.348;2023-03-12T11:35:12;19.10;54.70
65582;DHT22;52231;40.090;18.348;2023-03-12T11:43:34;19.10;54.10
65582;DHT22;52231;40.090;18.348;2023-03-12T11:54:43;18.60;54.30
65582;DHT22;52231;40.090;18.348;2023-03-12T12:00:21;18.80;53.20
65582;DHT22;52231;40.090;18.348;2023-03-12T12:15:35;19.00;48.50
65582;DHT22;52231;40.090;18.348;2023-03-12T12:21:35;18.90;46.40
65582;DHT22;52231;40.090;18.348;2023-03-12T12:31:55;19.20;45.40
65582;DHT22;52231;40.090;18.348;2023-03-12T12:40:19;19.40;42.30
65582;DHT22;52231;40.090;18.348;2023-03-12T12:45:25;19.10;40.60
65582;DHT22;52231;40.090;18.348;2023-03-12T12:48:16;19.00;41.60
65582;DHT22;52231;40.090;18.348;2023-03-12T12:50:45;18.70;42.60
65582;DHT22;52231;40.090;18.348;2023-03-12T12:53:19;18.80;43.40
65582;DHT22;52231;40.090;18.348;2023-03-12T13:01:19;18.60;45.60
65582;DHT22;52231;40.090;18.348;2023-03-12T13:03:48;18.70;46.60
65582;DHT22;52231;40.090;18.348;2023-03-12T13:06:17;18.50;45.50
65582;DHT22;52231;40.090;18.348;2023-03-12T13:16:35;17.80;43.80
65582;DHT22;52231;40.090;18.348;2023-03-12T13:22:14;18.10;43.80
65582;DHT22;52231;40.090;18.348;2023-03-12T13:27:21;17.90;43.40
65582;DHT22;52231;40.090;18.348;2023-03-12T13:29:50;18.00;44.10
65582;DHT22;52231;40.090;18.348;2023-03-12T13:37:55;18.80;40.70
65582;DHT22;52231;40.090;18.348;2023-03-12T13:46:28;18.20;34.10
65582;DHT22;52231;40.090;18.348;2023-03-12T13:48:47;18.00;36.40
65582;DHT22;52231;40.090;18.348;2023-03-12T13:51:19;17.70;38.00
65582;DHT22;52231;40.090;18.348;2023-03-12T13:53:51;17.60;39.10
65582;DHT22;52231;40.090;18.348;2023-03-12T13:56:29;17.30;35.00
65582;DHT22;52231;40.090;18.348;2023-03-12T13:58:59;17.10;38.30
65582;DHT22;52231;40.090;18.348;2023-03-12T14:01:37;16.90;38.80
65582;DHT22;52231;40.090;18.348;2023-03-12T14:04:12;16.80;38.30
65582;DHT22;52231;40.090;18.348;2023-03-12T14:07:21;16.70;36.90
65582;DHT22;52231;40.090;18.348;2023-03-12T14:18:17;17.30;36.80
65582;DHT22;52231;40.090;18.348;2023-03-12T14:20:55;16.80;37.60
65582;DHT22;52231;40.090;18.348;2023-03-12T14:23:36;16.40;39.70
65582;DHT22;52231;40.090;18.348;2023-03-12T14:26:07;16.20;40.50
65582;DHT22;52231;40.090;18.348;2023-03-12T14:28:41;16.30;40.10
65582;DHT22;52231;40.090;18.348;2023-03-12T14:31:19;16.70;41.20
65582;DHT22;52231;40.090;18.348;2023-03-12T14:36:45;16.80;37.70
65582;DHT22;52231;40.090;18.348;2023-03-12T14:39:35;16.70;39.20
65582;DHT22;52231;40.090;18.348;2023-03-12T14:42:07;16.60;40.00
65582;DHT22;52231;40.090;18.348;2023-03-12T14:44:37;16.50;40.60
65582;DHT22;52231;40.090;18.348;2023-03-12T14:47:08;16.40;39.00
65582;DHT22;52231;40.090;18.348;2023-03-12T14:49:43;16.30;38.60
65582;DHT22;52231;40.090;18.348;2023-03-12T14:52:13;16.20;39.80
65582;DHT22;52231;40.090;18.348;2023-03-12T14:55:13;16.40;41.00
65582;DHT22;52231;40.090;18.348;2023-03-12T14:57:42;16.50;41.20
65582;DHT22;52231;40.090;18.348;2023-03-12T15:00:23;16.70;42.00
65582;DHT22;52231;40.090;18.348;2023-03-12T15:02:53;16.60;42.80
65582;DHT22;52231;40.090;18.348;2023-03-12T15:05:22;16.60;43.50
65582;DHT22;52231;40.090;18.348;2023-03-12T15:07:59;16.60;43.60
65582;DHT22;52231;40.090;18.348;2023-03-12T15:10:30;16.30;43.60
65582;DHT22;52231;40.090;18.348;2023-03-12T15:13:01;15.90;43.40
65582;DHT22;52231;40.090;18.348;2023-03-12T15:15:39;15.70;44.90
65582;DHT22;52231;40.090;18.348;2023-03-12T15:20:43;15.40;46.00
65582;DHT22;52231;40.090;18.348;2023-03-12T15:23:16;15.30;46.50
65582;DHT22;52231;40.090;18.348;2023-03-12T15:25:45;15.00;47.40
65582;DHT22;52231;40.090;18.348;2023-03-12T15:30:42;14.80;48.40
65582;DHT22;52231;40.090;18.348;2023-03-12T15:33:21;14.60;48.90
65582;DHT22;52231;40.090;18.348;2023-03-12T15:38:26;14.50;49.90
65582;DHT22;52231;40.090;18.348;2023-03-12T15:40:55;14.40;50.10
65582;DHT22;52231;40.090;18.348;2023-03-12T15:43:27;14.30;49.90
65582;DHT22;52231;40.090;18.348;2023-03-12T15:45:58;14.20;50.40
65582;DHT22;52231;40.090;18.348;2023-03-12T15:48:31;14.00;50.40
65582;DHT22;52231;40.090;18.348;2023-03-12T15:51:13;14.00;51.00
65582;DHT22;52231;40.090;18.348;2023-03-12T15:53:42;13.80;51.30
65582;DHT22;52231;40.090;18.348;2023-03-12T15:58:40;13.70;51.80
65582;DHT22;52231;40.090;18.348;2023-03-12T16:01:12;13.60;52.50
65582;DHT22;52231;40.090;18.348;2023-03-12T16:03:42;13.50;51.90
65582;DHT22;52231;40.090;18.348;2023-03-12T16:06:17;13.50;52.10
65582;DHT22;52231;40.090;18.348;2023-03-12T16:08:54;13.40;52.50
65582;DHT22;52231;40.090;18.348;2023-03-12T16:11:25;13.30;52.90
65582;DHT22;52231;40.090;18.348;2023-03-12T16:14:02;13.30;53.50
65582;DHT22;52231;40.090;18.348;2023-03-12T16:16:36;13.20;53.90
65582;DHT22;52231;40.090;18.348;2023-03-12T16:19:13;13.10;53.80
65582;DHT22;52231;40.090;18.348;2023-03-12T16:21:44;13.00;54.70
65582;DHT22;52231;40.090;18.348;2023-03-12T16:24:14;13.00;55.00
65582;DHT22;52231;40.090;18.348;2023-03-12T16:26:52;12.90;55.40
65582;DHT22;52231;40.090;18.348;2023-03-12T16:29:33;12.80;56.00
65582;DHT22;52231;40.090;18.348;2023-03-12T16:32:12;12.80;56.30
65582;DHT22;52231;40.090;18.348;2023-03-12T16:34:42;12.70;56.20
65582;DHT22;52231;40.090;18.348;2023-03-12T16:37:12;12.60;57.00
65582;DHT22;52231;40.090;18.348;2023-03-12T16:39:41;12.50;57.60
65582;DHT22;52231;40.090;18.348;2023-03-12T16:42:18;12.50;57.90
65582;DHT22;52231;40.090;18.348;2023-03-12T16:44:47;12.40;58.70
65582;DHT22;52231;40.090;18.348;2023-03-12T16:47:16;12.40;58.80
65582;DHT22;52231;40.090;18.348;2023-03-12T16:49:46;12.30;59.30
65582;DHT22;52231;40.090;18.348;2023-03-12T16:52:20;12.30;59.40
65582;DHT22;52231;40.090;18.348;2023-03-12T16:54:49;12.20;59.80
65582;DHT22;52231;40.090;18.348;2023-03-12T16:57:29;12.20;60.30
65582;DHT22;52231;40.090;18.348;2023-03-12T17:00:00;12.10;60.60
65582;DHT22;52231;40.090;18.348;2023-03-12T17:02:29;12.00;60.90
65582;DHT22;52231;40.090;18.348;2023-03-12T17:04:57;12.00;61.30
65582;DHT22;52231;40.090;18.348;2023-03-12T17:07:26;11.90;61.70
65582;DHT22;52231;40.090;18.348;2023-03-12T17:09:55;11.90;61.90
65582;DHT22;52231;40.090;18.348;2023-03-12T17:12:35;11.90;62.10
65582;DHT22;52231;40.090;18.348;2023-03-12T17:15:25;11.80;62.50
65582;DHT22;52231;40.090;18.348;2023-03-12T17:17:55;11.80;62.80
65582;DHT22;52231;40.090;18.348;2023-03-12T17:20:27;11.80;63.10
65582;DHT22;52231;40.090;18.348;2023-03-12T17:22:56;11.70;63.50
65582;DHT22;52231;40.090;18.348;2023-03-12T17:25:27;11.80;63.60
65582;DHT22;52231;40.090;18.348;2023-03-12T17:27:56;11.70;63.80
65582;DHT22;52231;40.090;18.348;2023-03-12T17:30:28;11.70;64.00
65582;DHT22;52231;40.090;18.348;2023-03-12T17:33:13;11.70;64.30
65582;DHT22;52231;40.090;18.348;2023-03-12T17:35:42;11.70;64.80
65582;DHT22;52231;40.090;18.348;2023-03-12T17:38:16;11.60;65.20
65582;DHT22;52231;40.090;18.348;2023-03-12T17:40:47;11.60;65.30
65582;DHT22;52231;40.090;18.348;2023-03-12T17:43:15;11.50;65.80
65582;DHT22;52231;40.090;18.348;2023-03-12T17:45:43;11.40;66.20
65582;DHT22;52231;40.090;18.348;2023-03-12T17:48:12;11.40;66.80
65582;DHT22;52231;40.090;18.348;2023-03-12T17:50:41;11.30;67.30
65582;DHT22;52231;40.090;18.348;2023-03-12T17:53:12;11.30;68.00
65582;DHT22;52231;40.090;18.348;2023-03-12T17:55:45;11.30;68.50
65582;DHT22;52231;40.090;18.348;2023-03-12T17:58:14;11.30;68.90
65582;DHT22;52231;40.090;18.348;2023-03-12T18:00:43;11.20;69.20
65582;DHT22;52231;40.090;18.348;2023-03-12T18:03:11;11.20;69.40